KOLY/OLY METAR and TAF weather

Enter ICAO airport designator
Station Type Date Time Source
KOLY METAR 2021/10/20 07:15 UTC NOAA

KOLY 200715Z AUTO 00000KT 10SM CLR 11/09 A3015 RMK AO2 T01110091


Station Type Date Time Source
KOLY Decoded METAR 2021/10/20 07:15 UTC NOAA

Olney-Noble, Olney-Noble Airport, IL, United States (KOLY) 38-43-19N 088-10-35W
Oct 20, 2021 - 03:15 AM EDT / 2021.10.20 0715 UTC
Wind: Calm:0
Visibility: 10 mile(s):0
Sky conditions: clear
Temperature: 52.0 F (11.1 C)
Dew Point: 48.4 F (9.1 C)
Relative Humidity: 87%
Pressure (altimeter): 30.15 in. Hg (1020 hPa)
ob: KOLY 200715Z AUTO 00000KT 10SM CLR 11/09 A3015 RMK AO2 T01110091
cycle: 7

Station Type Date Time Source
KOLY TAF UTC NOAA

Error!

Example: see airport list